createdAt,value
2019-03-19T00:02:08.876Z,20.67
2019-03-19T00:04:37.279Z,20.66
2019-03-19T00:07:05.720Z,20.64
2019-03-19T00:09:34.214Z,20.63
2019-03-19T00:12:02.681Z,20.63
2019-03-19T00:14:31.074Z,20.62
2019-03-19T00:16:59.504Z,20.60
2019-03-19T00:19:27.892Z,20.59
2019-03-19T00:21:56.327Z,20.58
2019-03-19T00:24:24.759Z,20.57
2019-03-19T00:26:53.259Z,20.57
2019-03-19T00:29:21.660Z,20.56
2019-03-19T00:31:50.072Z,20.55
2019-03-19T00:34:18.458Z,20.54
2019-03-19T00:36:46.853Z,20.53
2019-03-19T00:39:15.251Z,20.52
2019-03-19T00:41:43.656Z,20.51
2019-03-19T00:44:12.125Z,20.52
2019-03-19T00:46:40.525Z,20.50
2019-03-19T00:49:08.912Z,20.51
2019-03-19T00:51:37.312Z,20.49
2019-03-19T00:54:05.712Z,20.49
2019-03-19T00:56:34.118Z,20.48
2019-03-19T00:59:02.518Z,20.48
2019-03-19T01:01:30.958Z,20.46
2019-03-19T01:03:59.445Z,20.46
2019-03-19T01:06:27.891Z,20.44
2019-03-19T01:08:56.289Z,20.44
2019-03-19T01:11:24.772Z,20.43
2019-03-19T01:13:53.368Z,20.42
2019-03-19T01:16:21.786Z,20.42
2019-03-19T01:18:50.178Z,20.41
2019-03-19T01:21:18.608Z,20.40
2019-03-19T01:23:47.008Z,20.39
2019-03-19T01:26:15.400Z,20.39
2019-03-19T01:28:43.799Z,20.38
2019-03-19T01:31:12.227Z,20.38
2019-03-19T01:33:40.622Z,20.36
2019-03-19T01:36:09.019Z,20.37
2019-03-19T01:38:37.426Z,20.36
2019-03-19T01:41:05.828Z,20.35
2019-03-19T01:43:34.228Z,20.36
2019-03-19T01:46:02.622Z,20.36
2019-03-19T01:48:31.016Z,20.35
2019-03-19T01:50:59.410Z,20.34
2019-03-19T01:53:27.819Z,20.34
2019-03-19T01:56:04.773Z,20.32
2019-03-19T01:58:26.363Z,20.22
2019-03-19T02:00:54.778Z,20.22
2019-03-19T02:03:23.180Z,20.32
2019-03-19T02:05:51.568Z,20.31
2019-03-19T02:08:20.063Z,20.30
2019-03-19T02:10:48.469Z,20.30
2019-03-19T02:13:16.856Z,20.28
2019-03-19T02:15:45.251Z,20.24
2019-03-19T02:18:13.648Z,20.26
2019-03-19T02:20:42.049Z,20.26
2019-03-19T02:23:10.448Z,20.25
2019-03-19T02:25:38.840Z,20.24
2019-03-19T02:28:07.244Z,20.23
2019-03-19T02:30:35.640Z,20.22
2019-03-19T02:33:04.036Z,20.23
2019-03-19T02:35:32.425Z,20.23
2019-03-19T02:38:00.891Z,20.21
2019-03-19T02:40:29.290Z,20.20
2019-03-19T02:42:57.731Z,20.20
2019-03-19T02:45:26.120Z,20.18
2019-03-19T02:47:54.525Z,20.20
2019-03-19T02:50:23.022Z,20.19
2019-03-19T02:52:51.451Z,20.20
2019-03-19T02:55:19.854Z,20.18
2019-03-19T02:57:48.286Z,20.17
2019-03-19T03:00:17.823Z,20.16
2019-03-19T03:02:46.253Z,20.17
2019-03-19T03:05:22.032Z,20.14
2019-03-19T03:07:50.472Z,20.14
2019-03-19T03:10:18.980Z,20.14
2019-03-19T03:12:47.473Z,20.14
2019-03-19T03:15:15.873Z,20.13
2019-03-19T03:17:44.289Z,20.13
2019-03-19T03:20:13.737Z,20.13
2019-03-19T03:22:42.171Z,20.11
2019-03-19T03:25:12.978Z,20.11
2019-03-19T03:27:41.430Z,20.11
2019-03-19T03:30:15.161Z,20.10
2019-03-19T03:32:43.560Z,20.09
2019-03-19T03:35:11.975Z,20.10
2019-03-19T03:37:40.461Z,20.08
2019-03-19T03:40:12.125Z,20.08
2019-03-19T03:42:43.058Z,20.08
2019-03-19T03:45:12.287Z,20.07
2019-03-19T03:47:40.689Z,20.07
2019-03-19T03:50:16.013Z,20.07
2019-03-19T03:52:44.401Z,20.06
2019-03-19T03:55:13.840Z,20.06
2019-03-19T03:57:42.419Z,20.06
2019-03-19T04:00:19.010Z,20.04
2019-03-19T04:02:47.591Z,20.04
2019-03-19T04:05:16.013Z,20.04
2019-03-19T04:07:44.420Z,20.03
2019-03-19T04:10:14.920Z,20.03
2019-03-19T04:12:43.366Z,20.03
2019-03-19T04:15:15.837Z,20.03
2019-03-19T04:17:44.276Z,20.03
2019-03-19T04:20:13.710Z,20.01
2019-03-19T04:22:42.159Z,20.02
2019-03-19T04:25:10.979Z,20.01
2019-03-19T04:27:40.597Z,20.02
2019-03-19T04:30:12.679Z,20.02
2019-03-19T04:32:41.086Z,20.02
2019-03-19T04:35:09.487Z,20.02
2019-03-19T04:37:37.936Z,20.01
2019-03-19T04:40:09.587Z,20.00
2019-03-19T04:42:38.025Z,20.00
2019-03-19T04:45:08.860Z,20.00
2019-03-19T04:47:37.284Z,20.01
2019-03-19T04:50:11.146Z,20.01
2019-03-19T04:52:39.579Z,20.00
2019-03-19T04:55:10.215Z,20.00
2019-03-19T04:57:38.678Z,19.99
2019-03-19T05:00:12.292Z,20.00
2019-03-19T05:02:40.707Z,19.99
2019-03-19T05:05:10.542Z,19.99
2019-03-19T05:07:39.033Z,19.99
2019-03-19T05:10:15.515Z,19.99
2019-03-19T05:12:43.947Z,19.98
2019-03-19T05:15:12.340Z,19.98
2019-03-19T05:17:40.779Z,19.98
2019-03-19T05:20:15.888Z,19.97
2019-03-19T05:22:44.351Z,19.95
2019-03-19T05:25:12.731Z,19.97
2019-03-19T05:27:41.125Z,19.96
2019-03-19T05:30:14.865Z,19.97
2019-03-19T05:32:43.288Z,19.96
2019-03-19T05:35:11.683Z,19.97
2019-03-19T05:37:40.090Z,19.96
2019-03-19T05:40:11.736Z,19.97
2019-03-19T05:42:40.140Z,19.98
2019-03-19T05:45:10.764Z,19.99
2019-03-19T05:47:40.528Z,19.99
2019-03-19T05:50:15.312Z,20.00
2019-03-19T05:52:43.705Z,20.01
2019-03-19T05:55:12.177Z,20.01
2019-03-19T05:57:48.959Z,20.00
2019-03-19T06:00:13.206Z,20.01
2019-03-19T06:02:43.238Z,20.02
2019-03-19T06:05:12.368Z,20.02
2019-03-19T06:07:40.754Z,20.02
2019-03-19T06:10:13.149Z,20.02
2019-03-19T06:12:41.537Z,20.04
2019-03-19T06:15:14.116Z,20.05
2019-03-19T06:17:42.578Z,20.05
2019-03-19T06:20:12.916Z,20.07
2019-03-19T06:22:41.310Z,20.08
2019-03-19T06:25:11.107Z,20.08
2019-03-19T06:27:39.561Z,20.12
2019-03-19T06:30:18.487Z,20.13
2019-03-19T06:32:46.983Z,20.15
2019-03-19T06:35:16.123Z,20.18
2019-03-19T06:37:44.515Z,20.23
2019-03-19T06:40:17.834Z,20.25
2019-03-19T06:42:46.217Z,20.28
2019-03-19T06:45:18.776Z,20.33
2019-03-19T06:47:47.331Z,20.37
2019-03-19T06:50:17.862Z,20.40
2019-03-19T06:52:46.244Z,20.44
2019-03-19T06:55:16.832Z,20.48
2019-03-19T06:57:45.235Z,20.52
2019-03-19T07:00:19.179Z,20.55
2019-03-19T07:02:47.569Z,20.59
2019-03-19T07:05:17.242Z,20.63
2019-03-19T07:07:45.622Z,20.67
2019-03-19T07:10:15.152Z,20.71
2019-03-19T07:12:43.541Z,20.75
2019-03-19T07:15:18.117Z,20.78
2019-03-19T07:17:46.498Z,20.81
2019-03-19T07:20:19.642Z,20.87
2019-03-19T07:22:48.037Z,20.89
2019-03-19T07:25:16.425Z,20.95
2019-03-19T07:27:44.902Z,20.99
2019-03-19T07:30:21.413Z,21.02
2019-03-19T07:32:49.799Z,21.06
2019-03-19T07:35:18.197Z,21.09
2019-03-19T07:37:46.603Z,21.13
2019-03-19T07:40:15.862Z,21.16
2019-03-19T07:42:44.224Z,21.19
2019-03-19T07:45:22.984Z,21.23
2019-03-19T07:47:51.371Z,21.26
2019-03-19T07:50:20.602Z,21.30
2019-03-19T07:52:49.067Z,21.32
2019-03-19T07:55:17.450Z,21.35
2019-03-19T07:57:45.836Z,21.39
2019-03-19T08:00:17.869Z,21.43
2019-03-19T08:02:46.253Z,21.47
2019-03-19T08:05:14.689Z,21.51
2019-03-19T08:07:43.036Z,21.56
2019-03-19T08:10:17.315Z,21.64
2019-03-19T08:12:45.698Z,21.70
2019-03-19T08:15:15.290Z,21.76
2019-03-19T08:17:43.678Z,21.82
2019-03-19T08:20:15.570Z,21.84
2019-03-19T08:22:43.977Z,21.88
2019-03-19T08:25:13.427Z,21.90
2019-03-19T08:27:41.812Z,21.95
2019-03-19T08:30:18.727Z,21.97
2019-03-19T08:32:47.192Z,22.03
2019-03-19T08:35:15.606Z,22.08
2019-03-19T08:37:43.984Z,22.16
2019-03-19T08:40:20.345Z,22.19
2019-03-19T08:42:48.736Z,22.24
2019-03-19T08:45:18.832Z,22.32
2019-03-19T08:47:47.220Z,22.36
2019-03-19T08:50:22.477Z,22.40
2019-03-19T08:52:50.898Z,22.46
2019-03-19T08:55:19.326Z,22.53
2019-03-19T08:57:47.724Z,22.61
2019-03-19T09:00:23.378Z,22.67
2019-03-19T09:02:51.776Z,22.71
2019-03-19T09:05:20.164Z,22.73
2019-03-19T09:07:48.584Z,22.75
2019-03-19T09:10:17.906Z,22.78
2019-03-19T09:12:48.343Z,22.81
2019-03-19T09:15:17.761Z,22.82
2019-03-19T09:17:46.142Z,22.87
2019-03-19T09:20:15.574Z,22.95
2019-03-19T09:22:43.962Z,23.03
2019-03-19T09:25:12.538Z,23.13
2019-03-19T09:27:40.995Z,23.25
2019-03-19T09:30:14.736Z,23.37
2019-03-19T09:32:43.128Z,23.50
2019-03-19T09:35:11.518Z,23.67
2019-03-19T09:37:44.562Z,23.81
2019-03-19T09:40:15.492Z,23.92
2019-03-19T09:42:43.886Z,24.07
2019-03-19T09:45:13.097Z,24.08
2019-03-19T09:47:41.491Z,24.15
2019-03-19T09:50:15.201Z,24.29
2019-03-19T09:52:43.759Z,24.41
2019-03-19T09:55:14.017Z,24.55
2019-03-19T09:57:42.404Z,24.61
2019-03-19T10:00:23.693Z,24.59
2019-03-19T10:02:52.082Z,24.69
2019-03-19T10:05:20.514Z,24.65
2019-03-19T10:07:49.000Z,24.57
2019-03-19T10:10:22.367Z,24.52
2019-03-19T10:12:50.734Z,24.47
2019-03-19T10:15:19.166Z,24.44
2019-03-19T10:17:47.614Z,24.51
2019-03-19T10:20:21.283Z,24.57
2019-03-19T10:22:49.664Z,24.62
2019-03-19T10:25:18.084Z,24.58
2019-03-19T10:27:46.478Z,24.52
2019-03-19T10:30:21.777Z,24.48
2019-03-19T10:32:50.167Z,24.42
2019-03-19T10:35:18.573Z,24.35
2019-03-19T10:37:47.008Z,24.28
2019-03-19T10:40:19.654Z,24.23
2019-03-19T10:42:48.029Z,24.20
2019-03-19T10:45:20.010Z,24.27
2019-03-19T10:47:48.394Z,24.34
2019-03-19T10:50:25.148Z,24.43
2019-03-19T10:52:53.526Z,24.48
2019-03-19T10:55:21.918Z,24.50
2019-03-19T10:57:50.362Z,24.47
2019-03-19T11:00:25.666Z,24.43
2019-03-19T11:02:54.131Z,24.35
2019-03-19T11:05:23.289Z,24.27
2019-03-19T11:07:51.918Z,24.23
2019-03-19T11:10:20.323Z,24.21
2019-03-19T11:12:48.709Z,24.21
2019-03-19T11:15:19.336Z,24.30
2019-03-19T11:17:47.726Z,24.29
2019-03-19T11:20:17.378Z,24.24
2019-03-19T11:22:45.913Z,24.18
2019-03-19T11:25:27.955Z,24.12
2019-03-19T11:27:56.346Z,24.05
2019-03-19T11:30:31.680Z,23.98
2019-03-19T11:33:00.067Z,23.93
2019-03-19T11:35:28.588Z,24.12
2019-03-19T11:37:57.038Z,24.12
2019-03-19T11:40:26.262Z,24.07
2019-03-19T11:42:54.841Z,24.02
2019-03-19T11:45:24.513Z,23.98
2019-03-19T11:47:52.863Z,24.17
2019-03-19T11:50:23.839Z,24.68
2019-03-19T11:52:52.234Z,25.15
2019-03-19T11:55:20.660Z,25.52
2019-03-19T11:57:49.084Z,25.51
2019-03-19T12:00:22.415Z,25.40
2019-03-19T12:02:50.806Z,25.23
2019-03-19T12:05:19.195Z,25.09
2019-03-19T12:07:47.579Z,25.04
2019-03-19T12:10:15.976Z,25.22
2019-03-19T12:12:44.365Z,25.67
2019-03-19T12:15:13.156Z,26.21
2019-03-19T12:17:41.544Z,26.71
2019-03-19T12:20:12.540Z,27.26
2019-03-19T12:22:40.935Z,27.66
2019-03-19T12:25:10.753Z,27.54
2019-03-19T12:27:39.289Z,27.27
2019-03-19T12:30:22.581Z,26.94
2019-03-19T12:32:49.865Z,26.61
2019-03-19T12:35:18.890Z,26.25
2019-03-19T12:37:47.281Z,25.99
2019-03-19T12:40:17.763Z,25.78
2019-03-19T12:42:46.154Z,25.76
2019-03-19T12:45:16.744Z,25.81
2019-03-19T12:47:45.138Z,25.97
2019-03-19T12:50:15.670Z,26.14
2019-03-19T12:52:44.062Z,26.28
2019-03-19T12:55:12.458Z,26.45
2019-03-19T12:57:41.830Z,26.42
2019-03-19T13:00:20.510Z,26.30
2019-03-19T13:02:48.896Z,26.14
2019-03-19T13:05:17.286Z,26.06
2019-03-19T13:07:45.675Z,26.17
2019-03-19T13:10:21.531Z,26.39
2019-03-19T13:12:50.006Z,26.63
2019-03-19T13:15:19.566Z,26.80
2019-03-19T13:17:48.112Z,26.93
2019-03-19T13:20:20.467Z,26.82
2019-03-19T13:22:48.860Z,26.84
2019-03-19T13:25:18.497Z,26.66
2019-03-19T13:27:46.892Z,26.52
2019-03-19T13:30:26.623Z,26.41
2019-03-19T13:32:55.075Z,26.45
2019-03-19T13:35:23.467Z,26.44
2019-03-19T13:37:51.878Z,26.51
2019-03-19T13:40:20.392Z,26.59
2019-03-19T13:42:48.808Z,26.50
2019-03-19T13:45:25.126Z,26.40
2019-03-19T13:47:53.540Z,26.21
2019-03-19T13:50:22.374Z,26.02
2019-03-19T13:52:50.784Z,25.82
2019-03-19T13:55:20.240Z,25.70
2019-03-19T13:57:48.662Z,25.58
2019-03-19T14:00:17.809Z,25.48
2019-03-19T14:02:46.218Z,25.36
2019-03-19T14:05:16.611Z,25.25
2019-03-19T14:07:45.056Z,25.12
2019-03-19T14:10:17.238Z,25.04
2019-03-19T14:12:45.667Z,24.99
2019-03-19T14:15:16.658Z,24.91
2019-03-19T14:17:45.076Z,24.85
2019-03-19T14:20:17.701Z,24.72
2019-03-19T14:22:46.134Z,24.64
2019-03-19T14:25:15.482Z,24.57
2019-03-19T14:27:44.235Z,24.66
2019-03-19T14:30:27.687Z,24.73
2019-03-19T14:32:56.087Z,24.66
2019-03-19T14:35:24.491Z,24.56
2019-03-19T14:37:52.887Z,24.50
2019-03-19T14:40:24.901Z,24.46
2019-03-19T14:42:53.303Z,24.42
2019-03-19T14:45:21.697Z,24.33
2019-03-19T14:47:50.095Z,24.23
2019-03-19T14:50:23.764Z,24.16
2019-03-19T14:52:52.155Z,24.09
2019-03-19T14:55:20.543Z,23.99
2019-03-19T14:57:50.948Z,23.91
2019-03-19T15:00:19.894Z,23.84
2019-03-19T15:02:48.291Z,23.76
2019-03-19T15:05:16.690Z,23.69
2019-03-19T15:07:45.193Z,23.63
2019-03-19T15:10:23.766Z,23.57
2019-03-19T15:12:52.273Z,23.52
2019-03-19T15:15:21.609Z,23.50
2019-03-19T15:17:50.027Z,23.48
2019-03-19T15:20:21.678Z,23.46
2019-03-19T15:22:50.103Z,23.43
2019-03-19T15:25:18.553Z,23.41
2019-03-19T15:27:46.978Z,23.38
2019-03-19T15:30:16.798Z,23.35
2019-03-19T15:32:45.445Z,23.32
2019-03-19T15:35:13.836Z,23.28
2019-03-19T15:37:42.322Z,23.25
2019-03-19T15:40:13.314Z,23.20
2019-03-19T15:42:41.808Z,23.17
2019-03-19T15:45:12.437Z,23.14
2019-03-19T15:47:40.872Z,23.10
2019-03-19T15:50:11.797Z,23.05
2019-03-19T15:52:40.236Z,23.00
2019-03-19T15:55:08.850Z,22.97
2019-03-19T15:57:37.280Z,22.92
2019-03-19T16:00:08.999Z,22.88
2019-03-19T16:02:37.466Z,22.85
2019-03-19T16:05:08.992Z,22.81
2019-03-19T16:07:37.401Z,22.77
2019-03-19T16:10:08.029Z,22.72
2019-03-19T16:12:36.455Z,22.68
2019-03-19T16:15:07.551Z,22.65
2019-03-19T16:17:35.984Z,22.60
2019-03-19T16:20:10.205Z,22.57
2019-03-19T16:22:38.604Z,22.53
2019-03-19T16:25:08.339Z,22.50
2019-03-19T16:27:36.734Z,22.47
2019-03-19T16:30:15.890Z,22.44
2019-03-19T16:32:44.277Z,22.41
2019-03-19T16:35:13.174Z,22.38
2019-03-19T16:37:41.649Z,22.36
2019-03-19T16:40:17.567Z,22.33
2019-03-19T16:42:45.983Z,22.31
2019-03-19T16:45:14.369Z,22.28
2019-03-19T16:47:42.795Z,22.24
2019-03-19T16:50:16.007Z,22.22
2019-03-19T16:52:44.440Z,22.20
2019-03-19T16:55:15.162Z,22.17
2019-03-19T16:57:43.675Z,22.16
2019-03-19T17:00:21.338Z,22.13
2019-03-19T17:02:49.761Z,22.11
2019-03-19T17:05:18.426Z,22.08
2019-03-19T17:07:46.921Z,22.06
2019-03-19T17:10:19.796Z,22.05
2019-03-19T17:12:48.218Z,22.02
2019-03-19T17:15:17.235Z,21.99
2019-03-19T17:17:45.734Z,21.97
2019-03-19T17:20:18.240Z,21.95
2019-03-19T17:22:46.649Z,21.94
2019-03-19T17:25:23.462Z,21.91
2019-03-19T17:27:51.896Z,21.90
2019-03-19T17:30:31.203Z,21.89
2019-03-19T17:32:59.624Z,21.86
2019-03-19T17:35:28.076Z,21.84
2019-03-19T17:37:56.526Z,21.83
2019-03-19T17:40:24.911Z,21.82
2019-03-19T17:42:53.393Z,21.80
2019-03-19T17:45:21.736Z,21.79
2019-03-19T17:47:50.169Z,21.78
2019-03-19T17:50:23.877Z,21.76
2019-03-19T17:52:56.368Z,21.75
2019-03-19T17:55:26.461Z,21.74
2019-03-19T17:57:54.878Z,21.71
2019-03-19T18:00:27.725Z,21.69
2019-03-19T18:02:56.117Z,21.68
2019-03-19T18:05:24.506Z,21.67
2019-03-19T18:07:52.903Z,21.66
2019-03-19T18:10:21.441Z,21.66
2019-03-19T18:12:49.919Z,21.63
2019-03-19T18:15:19.212Z,21.63
2019-03-19T18:17:47.612Z,21.61
2019-03-19T18:20:16.750Z,21.57
2019-03-19T18:22:45.314Z,21.54
2019-03-19T18:25:15.038Z,21.55
2019-03-19T18:27:43.566Z,21.54
2019-03-19T18:30:17.015Z,21.55
2019-03-19T18:32:45.427Z,21.55
2019-03-19T18:35:13.816Z,21.53
2019-03-19T18:37:42.198Z,21.52
2019-03-19T18:40:14.869Z,21.51
2019-03-19T18:42:43.292Z,21.51
2019-03-19T18:45:16.580Z,21.51
2019-03-19T18:47:44.980Z,21.52
2019-03-19T18:50:17.511Z,21.52
2019-03-19T18:52:45.916Z,21.51
2019-03-19T18:55:14.323Z,21.47
2019-03-19T18:57:42.891Z,21.48
2019-03-19T19:00:18.236Z,21.48
2019-03-19T19:02:50.028Z,21.47
2019-03-19T19:05:20.885Z,21.47
2019-03-19T19:07:49.294Z,21.46
2019-03-19T19:10:20.903Z,21.46
2019-03-19T19:12:48.364Z,21.44
2019-03-19T19:15:23.840Z,21.46
2019-03-19T19:17:52.241Z,21.43
2019-03-19T19:20:20.713Z,21.42
2019-03-19T19:22:49.107Z,21.41
2019-03-19T19:25:22.711Z,21.40
2019-03-19T19:27:51.104Z,21.40
2019-03-19T19:30:21.837Z,21.39
2019-03-19T19:33:00.959Z,21.38
2019-03-19T19:35:21.180Z,21.37
2019-03-19T19:37:49.577Z,21.36
2019-03-19T19:40:18.543Z,21.36
2019-03-19T19:42:46.945Z,21.36
2019-03-19T19:45:18.929Z,21.33
2019-03-19T19:47:47.444Z,21.34
2019-03-19T19:50:20.983Z,21.32
2019-03-19T19:52:49.364Z,21.31
2019-03-19T19:55:17.766Z,21.30
2019-03-19T19:57:46.181Z,21.28
2019-03-19T20:00:18.513Z,21.27
2019-03-19T20:02:46.983Z,21.27
2019-03-19T20:05:15.456Z,21.26
2019-03-19T20:07:43.863Z,21.25
2019-03-19T20:10:17.034Z,21.25
2019-03-19T20:12:45.431Z,21.24
2019-03-19T20:15:14.014Z,21.23
2019-03-19T20:17:44.030Z,21.23
2019-03-19T20:20:21.322Z,21.23
2019-03-19T20:22:51.068Z,21.22
2019-03-19T20:25:19.467Z,21.21
2019-03-19T20:27:47.876Z,21.20
2019-03-19T20:30:18.505Z,21.19
2019-03-19T20:32:46.972Z,21.18
2019-03-19T20:35:15.380Z,21.17
2019-03-19T20:37:43.855Z,21.16
2019-03-19T20:40:13.901Z,21.16
2019-03-19T20:42:42.306Z,21.17
2019-03-19T20:45:12.897Z,21.18
2019-03-19T20:47:41.368Z,21.20
2019-03-19T20:50:15.741Z,21.20
2019-03-19T20:52:44.199Z,21.21
2019-03-19T20:55:12.716Z,21.18
2019-03-19T20:57:41.118Z,21.21
2019-03-19T21:00:12.906Z,21.19
2019-03-19T21:02:41.376Z,21.17
2019-03-19T21:05:09.803Z,21.16
2019-03-19T21:07:38.269Z,21.14
2019-03-19T21:10:10.087Z,21.10
2019-03-19T21:12:38.489Z,21.09
2019-03-19T21:15:09.566Z,21.06
2019-03-19T21:17:37.963Z,21.03
2019-03-19T21:20:07.468Z,21.02
2019-03-19T21:22:35.937Z,21.00
2019-03-19T21:25:05.440Z,20.95
2019-03-19T21:27:33.843Z,20.94
2019-03-19T21:30:02.311Z,20.92
2019-03-19T21:32:30.782Z,20.89
2019-03-19T21:34:59.395Z,20.85
2019-03-19T21:37:27.793Z,20.82
2019-03-19T21:39:56.231Z,20.81
2019-03-19T21:42:24.650Z,20.79
2019-03-19T21:44:53.091Z,20.79
2019-03-19T21:47:21.498Z,20.77
2019-03-19T21:49:50.054Z,20.74
2019-03-19T21:52:18.460Z,20.74
2019-03-19T21:54:46.892Z,20.70
2019-03-19T21:57:15.298Z,20.68
2019-03-19T21:59:43.741Z,20.69
2019-03-19T22:02:12.144Z,20.66
2019-03-19T22:04:40.634Z,20.65
2019-03-19T22:07:09.034Z,20.64
2019-03-19T22:09:37.496Z,20.63
2019-03-19T22:12:05.896Z,20.60
2019-03-19T22:14:34.355Z,20.58
2019-03-19T22:17:02.821Z,20.58
2019-03-19T22:19:31.226Z,20.55
2019-03-19T22:21:59.627Z,20.54
2019-03-19T22:24:28.037Z,20.54
2019-03-19T22:26:56.442Z,20.52
2019-03-19T22:29:24.845Z,20.51
2019-03-19T22:31:53.250Z,20.50
2019-03-19T22:34:21.653Z,20.49
2019-03-19T22:36:50.056Z,20.46
2019-03-19T22:39:18.453Z,20.44
2019-03-19T22:41:46.929Z,20.43
2019-03-19T22:44:15.326Z,20.42
2019-03-19T22:46:43.754Z,20.41
2019-03-19T22:49:12.156Z,20.40
2019-03-19T22:51:40.567Z,20.39
2019-03-19T22:54:08.972Z,20.38
2019-03-19T22:56:37.367Z,20.37
2019-03-19T22:59:05.881Z,20.32
2019-03-19T23:01:34.354Z,20.34
2019-03-19T23:04:02.755Z,20.33
2019-03-19T23:06:31.165Z,20.31
2019-03-19T23:08:59.563Z,20.31
2019-03-19T23:11:27.973Z,20.30
2019-03-19T23:13:56.385Z,20.27
2019-03-19T23:16:24.866Z,20.28
2019-03-19T23:18:53.263Z,20.26
2019-03-19T23:21:21.676Z,20.25
2019-03-19T23:23:50.076Z,20.24
2019-03-19T23:26:18.482Z,20.23
2019-03-19T23:28:46.877Z,20.23
2019-03-19T23:31:15.280Z,20.21
2019-03-19T23:33:43.683Z,20.21
2019-03-19T23:36:12.137Z,20.20
2019-03-19T23:38:40.542Z,20.21
2019-03-19T23:41:08.948Z,20.17
2019-03-19T23:43:37.378Z,20.16
2019-03-19T23:46:05.773Z,20.15
2019-03-19T23:48:34.177Z,20.15
2019-03-19T23:51:02.613Z,20.15
2019-03-19T23:53:31.018Z,20.12
2019-03-19T23:55:59.474Z,20.13
2019-03-19T23:58:27.878Z,20.13
